Hawaii METAR Reports

 

PHOG - Kahului, Hawaii, USA
Distance from station: WNW 8mi, 13km
Updated: Sat, 20-Jul-2019 3:54pm HST
Partly Cloudy
Partly Cloudy
 Wind from ENE
Wind: ENE 20 mph , 31 km/h, Gust: 32 mph , 52 km/h
Temperature: 86°F , 30°C
Heat Index: 91°F , 33°C
Dew Point: 70°F , 21°C
Humidity: 59%
Barometer: 29.93 inHg , 1013.5 hPa
Clouds: Partly Cloudy
Visibility: 10 miles , 16 km
Cloud details: Few Clouds 3000 ft
Partly Cloudy 5000 ft
2019/07/21 01:54 PHOG 210154Z 06017G28KT 10SM FEW030 SCT050 30/21 A2993 RMK AO2 PK WND 07029/0059 SLP140 T03000206 $
PHJH - Lahaina/West Mau, Hawaii, USA
Distance from station: WNW 24mi, 39km
Updated: Sat, 20-Jul-2019 3:45pm HST
Mostly Cloudy
Mostly Cloudy
 Wind from ENE
Wind: ENE 14 mph , 22 km/h
Temperature: 81°F , 27°C
Heat Index: 85°F , 29°C
Dew Point: 72°F , 22°C
Humidity: 74%
Barometer: 29.96 inHg , 1014.6 hPa
Clouds: Mostly Cloudy
Visibility: 10 miles , 16 km
Cloud details: Partly Cloudy 3500 ft
Mostly Cloudy 4500 ft
2019/07/21 01:45 PHJH 210145Z 06012KT 10SM SCT035 BKN045 27/22 A2996
 
PHNY - Lanai City Airpo, Hawaii, USA
Distance from station: W 40mi, 65km
Updated: Sat, 20-Jul-2019 3:56pm HST
Clear
Clear
 Wind from NE
Wind: NE 23 mph , 37 km/h, Gust: 29 mph , 46 km/h
Temperature: 81°F , 27°C
Heat Index: 85°F , 29°C
Dew Point: 72°F , 22°C
Humidity: 74%
Barometer: 29.98 inHg , 1015.2 hPa
Clouds: Clear
Visibility: 10 miles , 16 km
2019/07/21 01:56 PHNY 210156Z AUTO 05020G25KT 10SM CLR 27/22 A2998 RMK AO2 SLP130 T02670217
PHMK - Molokai, Hawaii, USA
Distance from station: WNW 55mi, 88km
Updated: Sat, 20-Jul-2019 3:54pm HST
Few Clouds
Few Clouds
 Wind from NNE
Wind: NNE 16 mph , 26 km/h, Gust: 26 mph , 43 km/h
Temperature: 84°F , 29°C
Heat Index: 89°F , 32°C
Dew Point: 72°F , 22°C
Humidity: 66%
Barometer: 29.95 inHg , 1014.2 hPa
Clouds: Few Clouds
Visibility: 10 miles , 16 km
Cloud details: Few Clouds 1700 ft
Few Clouds 2300 ft
2019/07/21 01:54 PHMK 210154Z 03014G23KT 10SM FEW017 FEW023 29/22 A2995 RMK AO2 PK WND 05026/0108 SLP143 T02890217
 
PHKO - Kailua/Kona, Hawaii, USA
Distance from station: SSE 79mi, 128km
Updated: Sat, 20-Jul-2019 3:53pm HST
Mostly Cloudy
Mostly Cloudy
 Wind from WSW
Wind: WSW 9 mph , 15 km/h
Temperature: 82°F , 28°C
Heat Index: 87°F , 31°C
Dew Point: 73°F , 23°C
Humidity: 74%
Barometer: 29.89 inHg , 1012.2 hPa
Clouds: Mostly Cloudy
Visibility: 10 miles , 16 km
Cloud details: Partly Cloudy 3700 ft
Mostly Cloudy 6000 ft
2019/07/21 01:53 PHKO 210153Z 24008KT 10SM SCT037 BKN060 28/23 A2989 RMK AO2 SLP122 T02830228
PHSF - Bradshaw Aaf/Haw, Hawaii, USA
Distance from station: SE 90mi, 145km
Updated: Sat, 20-Jul-2019 3:56pm HST
Partly Cloudy
Partly Cloudy
 Wind from S
Wind: S 13 mph , 20 km/h, Gust: 17 mph , 28 km/h
Temperature: 70°F , 21°C
Dew Point: 50°F , 10°C
Humidity: 50%
Barometer: 30.25 inHg , 1024.4 hPa
Clouds: Partly Cloudy
Visibility: 10 miles , 16 km
Cloud details: Few Clouds 3000 ft
Partly Cloudy 3900 ft
2019/07/21 01:56 PHSF 210156Z AUTO 18011G15KT 10SM FEW030 SCT039 21/10 A3025 RMK AO2 SLP129 WND DATA ESTMD T02090100 PWINO $
 
PHNG - Kaneohe Mcas, Hawaii, USA
Distance from station: WNW 102mi, 164km
Updated: Sat, 20-Jul-2019 3:57pm HST
Mostly Cloudy
Mostly Cloudy
 Wind from ENE
Wind: ENE 13 mph , 20 km/h
Temperature: 77°F , 25°C
Dew Point: 73°F , 23°C
Humidity: 89%
Barometer: 29.94 inHg , 1013.9 hPa
Clouds: Mostly Cloudy
Visibility: 10 miles , 16 km
Cloud details: Few Clouds 2100 ft
Few Clouds 3000 ft
Mostly Cloudy 4900 ft
2019/07/21 01:57 PHNG 210157Z 07011KT 10SM FEW021 FEW030 BKN049 25/23 A2994 RMK AO2 SLP132 T02500228 $
PHNL - Honolulu, Hawaii, USA
Distance from station: WNW 108mi, 174km
Updated: Sat, 20-Jul-2019 3:53pm HST
Mostly Cloudy
Mostly Cloudy
 Wind from ENE
Wind: ENE 21 mph , 33 km/h, Gust: 28 mph , 44 km/h
Temperature: 88°F , 31°C
Heat Index: 93°F , 34°C
Dew Point: 70°F , 21°C
Humidity: 55%
Barometer: 29.94 inHg , 1013.9 hPa
Clouds: Mostly Cloudy
Visibility: 10 miles , 16 km
Cloud details: Few Clouds 2400 ft
Partly Cloudy 3200 ft
Mostly Cloudy 4000 ft
2019/07/21 01:53 PHNL 210153Z 07018G24KT 10SM FEW024 SCT032 BKN040 31/21 A2994 RMK AO2 PK WND 06027/0100 SLP138 T03110206
 
PHTO - Hilo, Hawaii, USA
Distance from station: SE 114mi, 183km
Updated: Sat, 20-Jul-2019 3:53pm HST
Clear
Clear
 Wind from NE
Wind: NE 12 mph , 19 km/h
Temperature: 84°F , 29°C
Heat Index: 88°F , 31°C
Dew Point: 70°F , 21°C
Humidity: 62%
Barometer: 29.94 inHg , 1013.9 hPa
Clouds: Clear
Visibility: 10 miles , 16 km
2019/07/21 01:53 PHTO 210153Z 05010KT 10SM CLR 29/21 A2994 RMK AO2 SLP137 T02890206
PHJR - Kalaeloa, Hawaii, USA
Distance from station: WNW 117mi, 189km
Updated: Wed, 03-Jul-2019 8:50am HST
NOT Current
Few Clouds
Few Clouds
 Wind from E
Wind: E 8 mph , 13 km/h
Barometer: 29.99 inHg , 1015.6 hPa
Clouds: Few Clouds
Visibility: 10 miles , 16 km
Cloud details: Few Clouds 3300 ft
2019/07/03 18:50 PHJR 031850Z 09007KT 10SM FEW033 A2999
 
PHHI - Wheeler Afb/Oahu, Hawaii, USA
Distance from station: WNW 120mi, 193km
Updated: Sat, 20-Jul-2019 4:01pm HST
Mostly Cloudy
Mostly Cloudy
 Wind from E
Wind: E 12 mph , 19 km/h, Gust: 18 mph , 30 km/h
Temperature: 79°F , 26°C
Dew Point: 70°F , 21°C
Humidity: 74%
Barometer: 29.96 inHg , 1014.6 hPa
Clouds: Mostly Cloudy
Visibility: 10 miles , 16 km
Cloud details: Mostly Cloudy 2400 ft
Mostly Cloudy 3200 ft
2019/07/21 02:01 PHHI 210201Z AUTO 08010G16KT 10SM BKN024 BKN032 26/21 A2996 RMK AO2 CIG 021V030 SLP135 $
PHLI - Lihue/Kauai Is, Hawaii, USA
Distance from station: WNW 209mi, 336km
Updated: Sat, 20-Jul-2019 3:53pm HST
Overcast
Overcast
 Wind from NE
Wind: NE 15 mph , 24 km/h
Temperature: 82°F , 28°C
Heat Index: 86°F , 30°C
Dew Point: 72°F , 22°C
Humidity: 70%
Barometer: 29.99 inHg , 1015.6 hPa
Clouds: Overcast
Visibility: 10 miles , 16 km
Cloud details: Few Clouds 2300 ft
Mostly Cloudy 3400 ft
Overcast 4700 ft
2019/07/21 01:53 PHLI 210153Z 05013KT 10SM FEW023 BKN034 OVC047 28/22 A2999 RMK AO2 SLP152 T02830222
 
PHBK - Barking Sands/Ka, Hawaii, USA
Distance from station: WNW 237mi, 382km
Updated: Sat, 20-Jul-2019 3:56pm HST
Mostly Cloudy
Mostly Cloudy
 Wind from WSW
Wind: WSW 9 mph , 15 km/h
Temperature: 88°F , 31°C
Heat Index: 95°F , 35°C
Dew Point: 72°F , 22°C
Humidity: 59%
Barometer: 29.94 inHg , 1013.9 hPa
Clouds: Mostly Cloudy
Visibility: 10 miles , 16 km
Cloud details: Partly Cloudy 5000 ft
Mostly Cloudy 6000 ft
2019/07/21 01:56 PHBK 210156Z AUTO 25008KT 10SM SCT050 BKN060 31/22 A2994 RMK AO2 SLP139 T03060217 $